Time;durP1;ratioP1;P1;durP2;ratioP2;P2;SDS_P1;SDS_P2;PMS_P1;PMS_P2;Temp;Humidity;BMP_temperature;BMP_pressure;BME280_temperature;BME280_humidity;BME280_pressure;Samples;Min_cycle;Max_cycle;Signal;HPM_P1;HPM_P2
2021/07/29 00:01:15;;;;;;;7.63;4.03;;;29.10;37.80;;;;;;21176855;28;20062;-74
2021/07/29 00:11:19;;;;;;;6.93;4.00;;;28.90;38.60;;;;;;21176435;28;20100;-70
2021/07/29 00:21:21;;;;;;;8.05;5.40;;;28.80;39.20;;;;;;21177152;28;20095;-73
2021/07/29 00:31:33;;;;;;;7.35;3.88;;;28.70;39.70;;;;;;21174961;28;20043;-63
2021/07/29 00:41:35;;;;;;;6.10;3.78;;;28.70;39.80;;;;;;21174313;28;20403;-73
2021/07/29 00:51:37;;;;;;;6.47;3.88;;;28.60;40.40;;;;;;21175883;28;20094;-64
2021/07/29 01:01:38;;;;;;;5.68;3.88;;;28.40;40.90;;;;;;21218624;28;20048;-65
2021/07/29 01:11:42;;;;;;;7.38;3.88;;;28.30;41.40;;;;;;21163733;28;20389;-74
2021/07/29 01:21:44;;;;;;;8.05;3.47;;;28.20;41.90;;;;;;21171419;28;20164;-75
2021/07/29 01:31:47;;;;;;;7.03;4.00;;;28.10;42.50;;;;;;21169922;28;20073;-73
2021/07/29 01:41:50;;;;;;;5.65;3.83;;;28.10;43.10;;;;;;21168333;28;20048;-74
2021/07/29 01:52:00;;;;;;;10.90;4.83;;;28.00;43.90;;;;;;21168239;28;20484;-64
2021/07/29 02:02:05;;;;;;;8.25;4.03;;;27.90;44.80;;;;;;21171353;28;20130;-63
2021/07/29 02:12:07;;;;;;;6.80;3.55;;;27.70;46.80;;;;;;21221130;28;20051;-68
2021/07/29 02:22:10;;;;;;;8.50;5.53;;;27.60;48.10;;;;;;21190395;28;20055;-71
2021/07/29 02:32:13;;;;;;;8.50;4.63;;;27.50;49.10;;;;;;21146916;28;20050;-73
2021/07/29 02:42:16;;;;;;;9.07;4.75;;;27.30;50.20;;;;;;21164321;28;20047;-73
2021/07/29 02:52:32;;;;;;;10.48;4.90;;;27.20;50.80;;;;;;21164541;28;20400;-69
2021/07/29 03:02:37;;;;;;;7.00;4.57;;;27.10;51.40;;;;;;21163049;28;20040;-64
2021/07/29 03:12:41;;;;;;;9.32;4.85;;;26.90;52.00;;;;;;21182800;28;20377;-61
2021/07/29 03:22:46;;;;;;;8.88;4.72;;;26.80;52.30;;;;;;21179064;28;20134;-61
2021/07/29 03:32:50;;;;;;;7.13;4.78;;;26.70;52.40;;;;;;21178210;28;20134;-69
2021/07/29 03:42:56;;;;;;;8.73;4.72;;;26.60;52.50;;;;;;21177322;28;20480;-61
2021/07/29 03:52:58;;;;;;;8.77;4.95;;;26.60;53.00;;;;;;21176162;28;20116;-62
2021/07/29 04:03:06;;;;;;;9.90;5.97;;;26.50;53.20;;;;;;21176265;28;20118;-73
2021/07/29 04:13:09;;;;;;;7.55;4.93;;;26.40;53.50;;;;;;21175537;28;20126;-72
2021/07/29 04:23:13;;;;;;;7.80;4.70;;;26.30;53.80;;;;;;21174289;28;20055;-69
2021/07/29 04:33:17;;;;;;;7.95;4.78;;;26.20;54.00;;;;;;21173899;28;20051;-71
2021/07/29 04:43:21;;;;;;;8.15;5.00;;;26.00;54.60;;;;;;21174321;28;20097;-72
2021/07/29 04:53:23;;;;;;;8.57;4.70;;;25.90;54.80;;;;;;21177274;28;20450;-74
2021/07/29 05:03:25;;;;;;;12.07;6.70;;;25.90;54.80;;;;;;21173742;28;20044;-68
2021/07/29 05:13:28;;;;;;;10.20;5.40;;;25.90;54.70;;;;;;21177138;28;20058;-72
2021/07/29 05:23:30;;;;;;;6.63;4.68;;;25.90;54.90;;;;;;21182806;28;20052;-70
2021/07/29 05:33:32;;;;;;;9.98;4.97;;;25.80;55.00;;;;;;21168020;28;20043;-64
2021/07/29 05:43:38;;;;;;;14.10;6.72;;;25.80;55.20;;;;;;21167653;28;20093;-71
2021/07/29 05:53:41;;;;;;;9.15;5.28;;;25.80;55.30;;;;;;21166855;28;20087;-61
2021/07/29 06:03:43;;;;;;;9.15;4.85;;;25.70;55.50;;;;;;21166270;28;20052;-64
2021/07/29 06:13:47;;;;;;;11.35;6.05;;;25.80;55.70;;;;;;21166392;28;20054;-64
2021/07/29 06:23:49;;;;;;;11.52;5.00;;;25.70;56.10;;;;;;21165317;28;20074;-66
2021/07/29 06:33:50;;;;;;;;;;;25.70;55.70;;;;;;21165231;28;20044;-62
2021/07/29 06:43:53;;;;;;;7.55;5.25;;;25.80;55.40;;;;;;21164811;28;20476;-62
2021/07/29 06:53:55;;;;;;;7.38;4.95;;;26.00;54.70;;;;;;21166492;28;20373;-62
2021/07/29 07:04:00;;;;;;;6.72;4.97;;;26.50;53.60;;;;;;21163901;28;20101;-73
2021/07/29 07:14:05;;;;;;;10.85;5.15;;;27.20;52.00;;;;;;21163529;28;20047;-70
2021/07/29 07:24:07;;;;;;;7.88;5.28;;;27.60;50.80;;;;;;21162480;28;20079;-68
2021/07/29 07:34:10;;;;;;;7.53;4.53;;;28.00;49.60;;;;;;21145064;28;20048;-70
2021/07/29 07:44:14;;;;;;;8.88;5.25;;;28.40;48.40;;;;;;21162567;28;20446;-71
2021/07/29 07:54:16;;;;;;;9.88;4.82;;;28.70;47.90;;;;;;21170638;28;20412;-75
2021/07/29 08:04:18;;;;;;;8.30;4.45;;;28.80;47.00;;;;;;21181270;28;20039;-71
2021/07/29 08:14:21;;;;;;;12.13;6.15;;;29.20;45.90;;;;;;21184758;28;20094;-73
2021/07/29 08:24:23;;;;;;;11.45;4.63;;;29.60;45.40;;;;;;21176039;28;20410;-70
2021/07/29 08:34:26;;;;;;;10.95;5.63;;;29.70;45.00;;;;;;21174644;28;20043;-71
2021/07/29 08:44:28;;;;;;;10.20;5.18;;;30.00;44.20;;;;;;21174614;28;20047;-69
2021/07/29 08:54:31;;;;;;;8.85;4.85;;;30.10;44.10;;;;;;21175317;28;20073;-75
2021/07/29 09:04:33;;;;;;;8.13;4.95;;;30.40;43.50;;;;;;21171677;28;20469;-63
2021/07/29 09:14:35;;;;;;;10.43;5.50;;;30.60;42.80;;;;;;21176973;28;20143;-63
2021/07/29 09:24:56;;;;;;;17.40;5.80;;;31.00;41.90;;;;;;21173754;28;20499;-63
2021/07/29 09:34:58;;;;;;;9.63;5.22;;;31.40;41.00;;;;;;21179420;28;20047;-63
2021/07/29 09:45:01;;;;;;;13.70;5.90;;;31.50;41.10;;;;;;21217561;28;20044;-75
2021/07/29 09:55:04;;;;;;;13.43;5.80;;;31.60;40.50;;;;;;21170873;28;20104;-75
2021/07/29 10:05:09;;;;;;;14.20;5.50;;;31.60;40.50;;;;;;21184001;28;20039;-74
2021/07/29 10:15:11;;;;;;;12.15;5.75;;;31.70;39.90;;;;;;21169455;28;20055;-65
2021/07/29 10:25:14;;;;;;;12.18;5.75;;;31.80;39.30;;;;;;21164776;28;20054;-64
2021/07/29 10:35:29;;;;;;;8.10;4.82;;;31.70;39.80;;;;;;21162941;28;20484;-70
2021/07/29 10:45:54;;;;;;;8.23;5.07;;;31.70;38.50;;;;;;21168744;28;20051;-57
2021/07/29 10:55:56;;;;;;;6.75;4.80;;;32.00;37.00;;;;;;21146982;28;20056;-69
2021/07/29 11:06:09;;;;;;;10.77;5.38;;;32.10;37.00;;;;;;21162571;28;20050;-68
2021/07/29 11:16:12;;;;;;;11.48;4.93;;;32.10;36.90;;;;;;21161930;28;20363;-68
2021/07/29 11:26:15;;;;;;;5.95;4.55;;;32.30;36.10;;;;;;21165494;28;20522;-66
2021/07/29 11:36:17;;;;;;;9.35;5.28;;;32.50;33.90;;;;;;21178031;28;20047;-64
2021/07/29 11:46:19;;;;;;;9.77;4.70;;;32.80;33.00;;;;;;21177021;28;20081;-68
2021/07/29 11:56:21;;;;;;;7.43;4.78;;;33.10;31.90;;;;;;21176503;28;20055;-67
2021/07/29 12:06:25;;;;;;;12.10;5.40;;;33.30;31.60;;;;;;21175694;28;20079;-66
2021/07/29 12:16:47;;;;;;;9.02;4.97;;;33.50;30.20;;;;;;21175848;28;20143;-67
2021/07/29 12:27:19;;;;;;;6.22;4.28;;;33.80;29.90;;;;;;21174766;28;20096;-65
2021/07/29 12:37:27;;;;;;;6.40;4.43;;;34.00;29.40;;;;;;21169511;28;20055;-66
2021/07/29 12:47:29;;;;;;;5.00;4.10;;;34.10;28.60;;;;;;21173146;28;20122;-66
2021/07/29 12:57:53;;;;;;;7.22;4.05;;;34.30;28.90;;;;;;21172070;28;20048;-65
2021/07/29 13:07:55;;;;;;;6.68;4.65;;;34.30;28.10;;;;;;21152859;28;20040;-67
2021/07/29 13:17:57;;;;;;;8.73;4.25;;;34.40;27.60;;;;;;21170534;28;20173;-67
2021/07/29 13:27:58;;;;;;;7.07;3.67;;;34.60;28.10;;;;;;21168940;28;20051;-65
2021/07/29 13:38:00;;;;;;;7.53;3.90;;;34.70;27.80;;;;;;21167908;28;20086;-65
2021/07/29 13:48:02;;;;;;;8.85;3.75;;;34.80;27.30;;;;;;21167040;28;20058;-65
2021/07/29 13:58:04;;;;;;;6.80;4.25;;;34.80;26.70;;;;;;21167023;28;20058;-67
2021/07/29 14:08:06;;;;;;;7.10;4.00;;;35.00;26.40;;;;;;21166398;28;20095;-67
2021/07/29 14:18:09;;;;;;;5.30;4.18;;;35.10;26.10;;;;;;21165810;28;20059;-67
2021/07/29 14:28:13;;;;;;;7.40;4.07;;;35.20;25.00;;;;;;21165226;28;20479;-68
2021/07/29 14:38:16;;;;;;;7.82;4.38;;;35.30;25.10;;;;;;21164867;28;20083;-67
2021/07/29 16:11:01;;;;;;;6.97;4.00;;;35.60;23.10;;;;;;21162281;28;20425;-68
2021/07/29 16:21:03;;;;;;;7.45;3.78;;;35.60;23.20;;;;;;21175114;28;20059;-65
2021/07/29 16:31:07;;;;;;;6.03;4.22;;;35.60;23.30;;;;;;21156512;28;20559;-68
2021/07/29 16:41:10;;;;;;;5.80;4.10;;;35.60;23.40;;;;;;21174027;28;20048;-68
2021/07/29 16:51:12;;;;;;;6.13;4.10;;;35.50;23.00;;;;;;21172542;28;20092;-68
2021/07/29 17:01:14;;;;;;;6.90;3.65;;;35.50;22.90;;;;;;21171704;28;20428;-66
2021/07/29 17:11:15;;;;;;;5.97;4.15;;;35.40;23.70;;;;;;21171818;28;20373;-65
2021/07/29 17:21:18;;;;;;;5.00;3.97;;;35.20;23.90;;;;;;21174148;28;20423;-65
2021/07/29 17:31:20;;;;;;;5.05;4.50;;;35.10;23.60;;;;;;21165905;28;20044;-67
2021/07/29 17:41:22;;;;;;;8.27;4.78;;;35.00;24.10;;;;;;21165806;28;20054;-67
2021/07/29 17:51:23;;;;;;;6.75;4.45;;;34.90;24.40;;;;;;21166473;28;20070;-65
2021/07/29 18:01:25;;;;;;;8.25;4.85;;;34.80;24.20;;;;;;21165398;28;20460;-67
2021/07/29 18:11:27;;;;;;;6.63;4.38;;;34.80;24.20;;;;;;21166295;28;20040;-69
2021/07/29 18:21:29;;;;;;;6.38;3.95;;;34.60;24.30;;;;;;21164493;28;20051;-68
2021/07/29 18:31:31;;;;;;;7.55;5.45;;;34.60;24.20;;;;;;21165813;28;20047;-70
2021/07/29 18:41:33;;;;;;;6.97;4.93;;;34.30;25.10;;;;;;21164480;28;20522;-68
2021/07/29 18:51:35;;;;;;;5.15;4.40;;;34.10;24.70;;;;;;21164423;28;20457;-69
2021/07/29 19:01:37;;;;;;;7.82;5.22;;;34.00;24.90;;;;;;21146619;28;20459;-68
2021/07/29 19:11:39;;;;;;;10.70;5.63;;;33.80;25.50;;;;;;21161962;28;20044;-69
2021/07/29 19:21:40;;;;;;;8.27;5.15;;;33.70;25.60;;;;;;21161247;28;20060;-68
2021/07/29 19:31:42;;;;;;;7.20;5.47;;;33.50;25.70;;;;;;21161540;28;20048;-66
2021/07/29 19:41:44;;;;;;;6.35;4.57;;;33.30;25.80;;;;;;21161679;28;20067;-66
2021/07/29 19:51:45;;;;;;;8.57;5.50;;;33.10;26.20;;;;;;21171753;28;20046;-67
2021/07/29 20:01:47;;;;;;;8.45;5.20;;;32.90;26.40;;;;;;21176016;28;20047;-66
2021/07/29 20:11:49;;;;;;;8.35;5.65;;;32.80;26.60;;;;;;21176375;28;20040;-68
2021/07/29 20:21:50;;;;;;;10.00;8.25;;;32.60;27.00;;;;;;21175801;28;20100;-67
2021/07/29 20:31:52;;;;;;;24.17;21.42;;;32.40;27.30;;;;;;21174410;28;20075;-69
2021/07/29 20:41:54;;;;;;;6.47;4.18;;;32.20;28.10;;;;;;21173827;28;20131;-67
2021/07/29 20:51:55;;;;;;;10.77;6.07;;;32.00;28.10;;;;;;21173065;28;20058;-66
2021/07/29 21:01:58;;;;;;;7.20;5.10;;;31.80;28.50;;;;;;21171491;28;20055;-67
2021/07/29 21:12:00;;;;;;;9.43;7.15;;;31.60;28.60;;;;;;21170396;28;20207;-67
2021/07/29 21:22:03;;;;;;;8.57;4.43;;;31.50;28.80;;;;;;21170386;28;20192;-66
2021/07/29 21:32:05;;;;;;;7.72;5.80;;;31.40;29.00;;;;;;21169518;28;20452;-66
2021/07/29 21:42:07;;;;;;;11.07;6.20;;;31.30;29.30;;;;;;21168001;28;20048;-68
2021/07/29 21:52:10;;;;;;;5.53;4.30;;;31.10;29.50;;;;;;21167457;28;20047;-68
2021/07/29 22:02:13;;;;;;;7.05;4.75;;;31.00;29.60;;;;;;21166442;28;20074;-66
2021/07/29 22:12:17;;;;;;;8.65;4.60;;;30.90;29.80;;;;;;21165957;28;20043;-66
2021/07/29 22:22:20;;;;;;;9.93;8.90;;;30.70;29.90;;;;;;21165436;28;20052;-67
2021/07/29 22:32:22;;;;;;;5.80;4.43;;;30.60;29.80;;;;;;21165225;28;20389;-65
2021/07/29 22:42:24;;;;;;;7.85;4.25;;;30.50;30.10;;;;;;21163680;28;20055;-65
2021/07/29 22:52:26;;;;;;;17.40;12.80;;;30.20;30.90;;;;;;21163801;28;20089;-65
2021/07/29 23:02:27;;;;;;;21.75;12.90;;;30.00;31.20;;;;;;21163827;28;20131;-64
2021/07/29 23:12:29;;;;;;;14.18;10.68;;;29.90;31.50;;;;;;21162483;28;20059;-68
2021/07/29 23:22:31;;;;;;;5.35;4.38;;;29.70;31.70;;;;;;21166239;28;20044;-65
2021/07/29 23:32:34;;;;;;;8.40;4.60;;;29.60;31.80;;;;;;21178654;28;20083;-64
2021/07/29 23:42:37;;;;;;;9.00;5.00;;;29.50;32.00;;;;;;21177576;28;20495;-63
2021/07/29 23:52:39;;;;;;;8.32;6.00;;;29.40;32.40;;;;;;21177413;28;20055;-66
